Time;durP1;ratioP1;P1;durP2;ratioP2;P2;SDS_P1;SDS_P2;PMS_P1;PMS_P2;Temp;Humidity;BMP_temperature;BMP_pressure;BME280_temperature;BME280_humidity;BME280_pressure;Samples;Min_cycle;Max_cycle;Signal;HPM_P1;HPM_P2
2023/07/12 00:01:37;;;;;;;;;;;;;;;17.64;45.55;100739.25;4997222;28;1135;-62
2023/07/12 00:04:03;;;;;;;;;;;;;;;16.99;46.75;100733.69;4997521;28;1129;-62
2023/07/12 00:06:36;;;;;;;;;;;;;;;16.82;46.55;100728.47;4996833;28;1072;-62
2023/07/12 00:09:05;;;;;;;;;;;;;;;16.88;45.94;100732.84;4985040;28;1034;-62
2023/07/12 00:11:30;;;;;;;;;;;;;;;16.90;45.29;100731.50;4996967;28;1160;-62
2023/07/12 00:13:56;;;;;;;;;;;;;;;16.72;45.49;100735.63;4997115;28;1088;-62
2023/07/12 00:16:22;;;;;;;;;;;;;;;16.74;45.38;100730.66;4996884;28;973;-62
2023/07/12 00:18:47;;;;;;;;;;;;;;;16.74;44.93;100736.16;5002887;28;1898;-62
2023/07/12 00:21:13;;;;;;;;;;;;;;;16.64;44.99;100738.91;4996610;28;1052;-62
2023/07/12 00:23:38;;;;;;;;;;;;;;;16.72;45.00;100730.13;4997203;28;1172;-62
2023/07/12 00:26:10;;;;;;;;;;;;;;;16.67;44.85;100732.84;4997309;28;1064;-63
2023/07/12 00:28:35;;;;;;;;;;;;;;;16.66;44.92;100725.75;4994890;28;869;-62
2023/07/12 00:31:01;;;;;;;;;;;;;;;16.65;44.69;100735.06;4996815;28;1199;-62
2023/07/12 00:33:26;;;;;;;;;;;;;;;16.57;44.84;100730.13;4997416;28;1148;-63
2023/07/12 00:35:52;;;;;;;;;;;;;;;16.64;44.93;100733.41;4996451;28;1126;-59
2023/07/12 00:38:19;;;;;;;;;;;;;;;16.96;45.54;100729.56;4997012;28;1977;-59
2023/07/12 00:40:53;;;;;;;;;;;;;;;17.09;46.59;100731.72;4990704;28;1021;-62
2023/07/12 00:43:39;;;;;;;;;;;;;;;16.89;46.39;100729.03;4995318;28;1028;-63
2023/07/12 00:46:11;;;;;;;;;;;;;;;16.76;46.08;100728.47;4996964;28;1104;-64
2023/07/12 00:48:36;;;;;;;;;;;;;;;16.62;45.89;100730.13;4996933;28;1175;-63
2023/07/12 00:51:17;;;;;;;;;;;;;;;16.74;45.46;100727.09;4996448;28;1028;-63
2023/07/12 00:53:42;;;;;;;;;;;;;;;16.59;45.63;100725.16;4996889;28;1128;-62
2023/07/12 00:56:09;;;;;;;;;;;;;;;16.63;45.41;100719.97;4996854;28;1170;-62
2023/07/12 00:58:36;;;;;;;;;;;;;;;16.56;45.38;100725.72;4995001;28;1906;-62
2023/07/12 01:01:02;;;;;;;;;;;;;;;16.57;45.03;100719.16;4979017;28;1207;-62
2023/07/12 01:03:28;;;;;;;;;;;;;;;17.61;45.91;100720.56;5011415;28;1375;-63
2023/07/12 01:05:54;;;;;;;;;;;;;;;17.02;46.57;100722.16;4995363;28;1542;-62
2023/07/12 01:08:19;;;;;;;;;;;;;;;16.76;46.59;100719.44;4996813;28;1138;-61
2023/07/12 01:10:45;;;;;;;;;;;;;;;16.75;46.31;100724.06;4978860;28;1883;-61
2023/07/12 01:13:10;;;;;;;;;;;;;;;16.74;45.69;100716.94;4997432;28;1140;-63
2023/07/12 01:15:36;;;;;;;;;;;;;;;16.83;45.38;100730.09;5000329;28;1107;-63
2023/07/12 01:18:02;;;;;;;;;;;;;;;16.70;45.27;100718.56;4999581;28;1914;-61
2023/07/12 01:20:28;;;;;;;;;;;;;;;16.63;45.47;100731.75;4998877;28;1545;-63
2023/07/12 01:22:54;;;;;;;;;;;;;;;16.68;45.03;100728.22;4999145;28;1423;-63
2023/07/12 01:25:42;;;;;;;;;;;;;;;17.34;46.29;100730.03;5000557;28;1043;-63
2023/07/12 01:28:08;;;;;;;;;;;;;;;17.02;46.29;100739.44;4996956;28;1459;-63
2023/07/12 01:30:35;;;;;;;;;;;;;;;16.87;46.09;100733.94;5000073;28;1071;-63
2023/07/12 01:33:01;;;;;;;;;;;;;;;16.85;45.62;100736.16;5000203;28;1171;-63
2023/07/12 01:35:26;;;;;;;;;;;;;;;16.71;45.84;100742.19;5000078;28;1154;-64
2023/07/12 01:37:53;;;;;;;;;;;;;;;16.74;45.40;100740.81;4998933;28;1218;-63
2023/07/12 01:40:21;;;;;;;;;;;;;;;16.66;45.52;100738.63;5000031;28;1967;-61
2023/07/12 01:42:46;;;;;;;;;;;;;;;16.74;45.05;100749.06;5000051;28;1135;-62
2023/07/12 01:45:12;;;;;;;;;;;;;;;16.61;45.42;100747.69;4998939;28;1392;-62
2023/07/12 01:47:38;;;;;;;;;;;;;;;16.58;45.24;100742.75;4996847;28;1454;-62
2023/07/12 01:50:04;;;;;;;;;;;;;;;16.61;45.14;100742.22;4999963;28;918;-63
2023/07/12 01:52:29;;;;;;;;;;;;;;;16.57;45.11;100741.09;4999425;28;1068;-64
2023/07/12 01:54:55;;;;;;;;;;;;;;;16.58;45.18;100737.28;5000041;28;1083;-64
2023/07/12 01:57:20;;;;;;;;;;;;;;;16.55;44.97;100743.28;5000099;28;1120;-64
2023/07/12 01:59:46;;;;;;;;;;;;;;;17.68;45.95;100750.53;4998643;28;1973;-62
2023/07/12 02:02:11;;;;;;;;;;;;;;;17.03;47.09;100754.84;5014495;28;1074;-62
2023/07/12 02:04:37;;;;;;;;;;;;;;;16.84;46.78;100746.31;5014450;28;1072;-62
2023/07/12 02:07:03;;;;;;;;;;;;;;;16.76;46.14;100755.94;4999910;28;1161;-62
2023/07/12 02:09:32;;;;;;;;;;;;;;;16.69;45.88;100762.78;4999663;28;1084;-63
2023/07/12 02:11:58;;;;;;;;;;;;;;;16.63;45.89;100748.22;4997981;28;1115;-63
2023/07/12 02:14:23;;;;;;;;;;;;;;;16.70;45.30;100761.69;4998377;28;1397;-61
2023/07/12 02:16:49;;;;;;;;;;;;;;;16.73;45.33;100759.22;4999351;28;1167;-62
2023/07/12 02:19:14;;;;;;;;;;;;;;;16.56;45.43;100758.66;4999115;28;1910;-62
2023/07/12 02:21:42;;;;;;;;;;;;;;;17.40;45.76;100758.31;4999527;28;1195;-62
2023/07/12 02:24:09;;;;;;;;;;;;;;;16.98;46.66;100765.00;4997523;28;1232;-62
2023/07/12 02:26:35;;;;;;;;;;;;;;;16.88;46.20;100768.56;4999027;28;1063;-62
2023/07/12 02:29:01;;;;;;;;;;;;;;;16.86;45.76;100773.50;4999048;28;930;-63
2023/07/12 02:31:28;;;;;;;;;;;;;;;16.76;45.86;100772.41;4985179;28;1548;-61
2023/07/12 02:33:55;;;;;;;;;;;;;;;16.70;45.53;100780.91;4997423;28;1284;-62
2023/07/12 02:36:20;;;;;;;;;;;;;;;16.72;45.57;100785.03;4999050;28;1399;-62
2023/07/12 02:38:49;;;;;;;;;;;;;;;16.68;45.72;100783.13;4998880;28;1899;-62
2023/07/12 02:41:15;;;;;;;;;;;;;;;16.64;45.60;100787.50;4998094;28;1080;-62
2023/07/12 02:43:40;;;;;;;;;;;;;;;16.71;45.33;100786.13;4998868;28;1142;-62
2023/07/12 02:46:06;;;;;;;;;;;;;;;17.34;46.61;100784.19;4999197;28;1183;-62
2023/07/12 02:48:31;;;;;;;;;;;;;;;16.95;46.73;100788.34;4998703;28;1075;-61
2023/07/12 02:50:57;;;;;;;;;;;;;;;16.86;46.34;100793.56;4999048;28;1183;-62
2023/07/12 02:53:22;;;;;;;;;;;;;;;16.80;46.25;100796.56;4998329;28;896;-62
2023/07/12 02:55:49;;;;;;;;;;;;;;;16.83;46.04;100796.00;4998482;28;1059;-61
2023/07/12 02:58:14;;;;;;;;;;;;;;;17.54;46.81;100810.78;4998538;28;1898;-61
2023/07/12 03:00:40;;;;;;;;;;;;;;;17.04;47.31;100803.19;4998640;28;1259;-62
2023/07/12 03:03:05;;;;;;;;;;;;;;;17.02;46.62;100826.53;4998649;28;1385;-62
2023/07/12 03:05:34;;;;;;;;;;;;;;;16.95;46.25;100826.81;4997550;28;1147;-62
2023/07/12 03:07:59;;;;;;;;;;;;;;;17.15;46.64;100836.16;4998578;28;1119;-65
2023/07/12 03:10:25;;;;;;;;;;;;;;;17.41;47.41;100853.44;4998468;28;1106;-64
2023/07/12 03:12:50;;;;;;;;;;;;;;;17.18;47.13;100857.56;4998160;28;1071;-64
2023/07/12 03:15:16;;;;;;;;;;;;;;;17.01;46.91;100864.19;4998323;28;1151;-66
2023/07/12 03:17:41;;;;;;;;;;;;;;;16.97;46.34;100868.56;4997265;28;1060;-65
2023/07/12 03:20:07;;;;;;;;;;;;;;;17.02;46.14;100879.53;4997687;28;1914;-65
2023/07/12 03:22:32;;;;;;;;;;;;;;;16.87;46.18;100890.50;4998273;28;1183;-65
2023/07/12 03:24:58;;;;;;;;;;;;;;;16.88;46.09;100886.66;4997892;28;1135;-69
2023/07/12 03:27:23;;;;;;;;;;;;;;;16.90;45.71;100890.81;4997955;28;1196;-65
2023/07/12 03:29:49;;;;;;;;;;;;;;;17.79;46.75;100882.25;4997545;28;892;-64
2023/07/12 03:32:14;;;;;;;;;;;;;;;17.26;47.29;100884.50;4998124;28;1199;-66
2023/07/12 03:34:40;;;;;;;;;;;;;;;17.05;47.04;100884.50;4997517;28;1088;-64
2023/07/12 03:37:05;;;;;;;;;;;;;;;17.02;46.42;100893.28;4997189;28;1048;-69
2023/07/12 03:39:31;;;;;;;;;;;;;;;17.05;46.20;100898.22;4997330;28;1906;-67
2023/07/12 03:41:56;;;;;;;;;;;;;;;16.85;45.97;100898.19;4997299;28;897;-68
2023/07/12 03:44:22;;;;;;;;;;;;;;;16.93;45.63;100901.25;4997628;28;1155;-67
2023/07/12 03:46:48;;;;;;;;;;;;;;;16.87;45.60;100895.97;4997907;28;1140;-65
2023/07/12 03:49:13;;;;;;;;;;;;;;;16.83;45.45;100900.38;4997279;28;1235;-66
2023/07/12 03:51:39;;;;;;;;;;;;;;;16.81;45.51;100902.59;4997956;28;1008;-66
2023/07/12 03:54:04;;;;;;;;;;;;;;;16.81;45.77;100919.06;4997394;28;981;-59
2023/07/12 03:56:30;;;;;;;;;;;;;;;16.74;45.73;100930.28;4995096;28;1261;-54
2023/07/12 03:58:55;;;;;;;;;;;;;;;16.83;45.33;100922.34;4997105;28;1991;-54
2023/07/12 04:01:21;;;;;;;;;;;;;;;16.70;45.37;100934.69;4995042;28;1289;-54
2023/07/12 04:03:46;;;;;;;;;;;;;;;16.77;45.13;100946.22;4985441;28;1152;-55
2023/07/12 04:06:12;;;;;;;;;;;;;;;16.70;45.25;100934.69;4996398;28;1012;-57
2023/07/12 04:08:38;;;;;;;;;;;;;;;17.43;46.37;100931.78;4997001;28;1193;-56
2023/07/12 04:11:04;;;;;;;;;;;;;;;16.99;47.15;100935.03;4983460;28;1138;-57
2023/07/12 04:13:29;;;;;;;;;;;;;;;16.90;46.74;100945.75;4990828;28;961;-55
2023/07/12 04:15:55;;;;;;;;;;;;;;;16.84;46.45;100946.78;4990895;28;1083;-55
2023/07/12 04:18:21;;;;;;;;;;;;;;;16.81;45.98;100957.50;4992092;28;1979;-55
2023/07/12 04:20:47;;;;;;;;;;;;;;;16.73;45.79;100953.34;4995114;28;1324;-55
2023/07/12 04:23:12;;;;;;;;;;;;;;;16.76;45.74;100956.41;4987372;28;1107;-55
2023/07/12 04:25:38;;;;;;;;;;;;;;;16.79;45.54;100963.28;4993789;28;1032;-54
2023/07/12 04:28:03;;;;;;;;;;;;;;;16.73;45.85;100970.66;4996977;28;1476;-56
2023/07/12 04:30:29;;;;;;;;;;;;;;;16.68;45.92;100973.38;4996637;28;906;-55
2023/07/12 04:32:54;;;;;;;;;;;;;;;16.80;45.31;100986.06;4994551;28;1356;-55
2023/07/12 04:35:20;;;;;;;;;;;;;;;16.60;45.55;100980.22;4995000;28;1052;-56
2023/07/12 04:37:45;;;;;;;;;;;;;;;16.72;45.16;100984.69;4992546;28;1235;-55
2023/07/12 04:40:11;;;;;;;;;;;;;;;16.67;45.36;100981.91;4992786;28;1981;-56
2023/07/12 04:42:37;;;;;;;;;;;;;;;16.65;45.26;100986.81;4991819;28;1317;-59
2023/07/12 04:45:03;;;;;;;;;;;;;;;16.63;45.26;100975.28;4992375;28;1181;-59
2023/07/12 04:47:28;;;;;;;;;;;;;;;16.57;45.42;100980.75;4995022;28;1080;-59
2023/07/12 04:49:54;;;;;;;;;;;;;;;16.58;45.45;100987.91;4996178;28;1072;-60
2023/07/12 04:52:19;;;;;;;;;;;;;;;17.88;43.70;100986.16;4996780;28;1289;-59
2023/07/12 04:54:45;;;;;;;;;;;;;;;17.40;44.99;100992.81;4992616;28;1384;-59
2023/07/12 04:57:11;;;;;;;;;;;;;;;17.15;45.86;100995.50;4996760;28;1219;-61
2023/07/12 04:59:36;;;;;;;;;;;;;;;17.02;46.54;100996.88;4996103;28;1968;-61
2023/07/12 05:02:02;;;;;;;;;;;;;;;16.99;46.87;100992.72;4996493;28;1096;-59
2023/07/12 05:04:27;;;;;;;;;;;;;;;16.89;47.56;101000.97;4995489;28;1044;-59
2023/07/12 05:06:53;;;;;;;;;;;;;;;16.83;47.74;101005.56;4989174;28;1028;-60
2023/07/12 05:09:20;;;;;;;;;;;;;;;16.76;48.07;101010.50;4983672;28;1048;-59
2023/07/12 05:11:46;;;;;;;;;;;;;;;16.71;48.46;101019.53;4995901;28;1309;-59
2023/07/12 05:14:11;;;;;;;;;;;;;;;16.65;48.70;101012.38;4996037;28;1068;-59
2023/07/12 05:16:37;;;;;;;;;;;;;;;16.65;49.24;101015.13;4995574;28;1392;-60
2023/07/12 05:19:03;;;;;;;;;;;;;;;16.62;49.35;101018.41;4995355;28;1906;-61
2023/07/12 05:21:29;;;;;;;;;;;;;;;16.57;49.44;101010.94;4995770;28;1289;-59
2023/07/12 05:23:54;;;;;;;;;;;;;;;16.57;49.81;101010.13;4995644;28;926;-60
2023/07/12 05:26:20;;;;;;;;;;;;;;;16.51;50.07;101019.44;4995900;28;1090;-61
2023/07/12 05:28:45;;;;;;;;;;;;;;;16.50;50.28;101013.13;4994914;28;1031;-59
2023/07/12 05:31:11;;;;;;;;;;;;;;;16.47;50.59;101018.34;4995835;28;1169;-59
2023/07/12 05:33:38;;;;;;;;;;;;;;;16.45;50.74;101026.00;4995499;28;1104;-59
2023/07/12 05:36:05;;;;;;;;;;;;;;;16.41;50.84;101026.53;4986423;28;969;-59
2023/07/12 05:38:30;;;;;;;;;;;;;;;16.39;50.96;101023.22;4986666;28;1894;-59
2023/07/12 05:40:59;;;;;;;;;;;;;;;16.33;51.12;101016.06;4979137;28;1044;-59
2023/07/12 05:43:24;;;;;;;;;;;;;;;16.32;51.65;101011.66;4986448;28;1132;-60
2023/07/12 05:45:50;;;;;;;;;;;;;;;16.31;51.42;101004.50;4992461;28;1064;-59
2023/07/12 05:48:16;;;;;;;;;;;;;;;16.31;51.63;101007.25;4995531;28;1128;-58
2023/07/12 05:50:41;;;;;;;;;;;;;;;16.21;51.86;101005.28;4995382;28;1261;-58
2023/07/12 05:53:08;;;;;;;;;;;;;;;16.29;51.81;101006.69;4996023;28;1155;-58
2023/07/12 05:55:34;;;;;;;;;;;;;;;16.21;52.30;101005.28;4995057;28;1051;-57
2023/07/12 05:57:59;;;;;;;;;;;;;;;16.25;52.23;101011.06;4995946;28;1195;-56
2023/07/12 06:00:25;;;;;;;;;;;;;;;16.20;52.27;101006.38;4998684;28;2000;-56
2023/07/12 06:02:50;;;;;;;;;;;;;;;16.16;52.71;101013.50;4999362;28;1159;-58
2023/07/12 06:05:18;;;;;;;;;;;;;;;16.16;52.79;101013.50;4998726;28;1131;-58
2023/07/12 06:07:44;;;;;;;;;;;;;;;16.15;52.88;101019.25;4999388;28;1187;-58
2023/07/12 06:10:09;;;;;;;;;;;;;;;16.16;52.84;101029.97;4986571;28;1087;-59
2023/07/12 06:12:35;;;;;;;;;;;;;;;16.11;53.06;101029.91;4999021;28;1156;-56
2023/07/12 06:15:00;;;;;;;;;;;;;;;16.06;52.99;101022.47;4998517;28;1227;-58
2023/07/12 06:17:26;;;;;;;;;;;;;;;16.09;53.00;101021.13;4998544;28;1096;-58
2023/07/12 06:19:51;;;;;;;;;;;;;;;16.11;53.09;101020.88;4998735;28;1910;-57
2023/07/12 06:22:17;;;;;;;;;;;;;;;16.07;53.12;101020.56;4998179;28;1097;-58
2023/07/12 06:24:42;;;;;;;;;;;;;;;16.07;53.39;101018.66;4999062;28;1345;-55
2023/07/12 06:27:08;;;;;;;;;;;;;;;16.04;53.51;101018.34;4998627;28;1122;-57
2023/07/12 06:29:33;;;;;;;;;;;;;;;16.01;53.80;101013.41;4998423;28;1048;-58
2023/07/12 06:31:59;;;;;;;;;;;;;;;16.00;53.77;101017.22;4996967;28;1143;-58
2023/07/12 06:34:24;;;;;;;;;;;;;;;16.02;53.67;101023.25;4991878;28;1151;-60
2023/07/12 06:36:50;;;;;;;;;;;;;;;16.02;53.83;101028.75;4998505;28;1155;-61
2023/07/12 06:39:16;;;;;;;;;;;;;;;15.95;54.08;101019.91;4999245;28;1918;-55
2023/07/12 06:41:41;;;;;;;;;;;;;;;15.98;54.11;101020.22;4998355;28;1036;-59
2023/07/12 06:44:07;;;;;;;;;;;;;;;15.99;53.91;101027.38;4998090;28;1124;-59
2023/07/12 06:46:32;;;;;;;;;;;;;;;15.91;54.03;101016.88;4998558;28;1122;-57
2023/07/12 06:48:58;;;;;;;;;;;;;;;15.94;54.11;101010.06;4998206;28;1088;-59
2023/07/12 06:51:24;;;;;;;;;;;;;;;15.92;54.35;101013.03;4999107;28;1215;-58
2023/07/12 06:53:50;;;;;;;;;;;;;;;15.96;54.17;101024.31;4998062;28;1160;-57
2023/07/12 06:56:16;;;;;;;;;;;;;;;15.94;54.13;101021.84;4979515;28;1052;-59
2023/07/12 06:58:41;;;;;;;;;;;;;;;15.92;54.34;101029.50;4995350;28;1979;-57
2023/07/12 07:01:07;;;;;;;;;;;;;;;15.94;54.46;101029.25;4998157;28;1184;-61
2023/07/12 07:03:33;;;;;;;;;;;;;;;15.88;54.52;101020.16;4986323;28;1112;-57
2023/07/12 07:05:59;;;;;;;;;;;;;;;15.90;54.69;101015.22;4998322;28;1143;-57
2023/07/12 07:08:25;;;;;;;;;;;;;;;15.89;54.63;101014.41;4997598;28;1124;-60
2023/07/12 07:10:50;;;;;;;;;;;;;;;15.90;54.60;101026.19;4998526;28;1175;-55
2023/07/12 07:13:16;;;;;;;;;;;;;;;15.86;54.86;101025.06;4997658;28;1191;-56
2023/07/12 07:15:43;;;;;;;;;;;;;;;15.90;54.71;101034.44;4997913;28;1389;-58
2023/07/12 07:18:10;;;;;;;;;;;;;;;15.91;54.53;101027.84;4998711;28;1278;-61
2023/07/12 07:20:35;;;;;;;;;;;;;;;15.88;54.75;101031.13;4998392;28;1361;-54
2023/07/12 07:23:01;;;;;;;;;;;;;;;15.82;55.13;101030.28;4998436;28;1068;-56
2023/07/12 07:25:27;;;;;;;;;;;;;;;15.84;54.73;101022.59;4997877;28;1123;-54
2023/07/12 07:27:53;;;;;;;;;;;;;;;15.83;55.14;101017.38;4998042;28;1021;-55
2023/07/12 07:30:18;;;;;;;;;;;;;;;15.80;54.91;101020.66;4991601;28;1077;-58
2023/07/12 07:32:44;;;;;;;;;;;;;;;15.84;55.09;101024.53;4991415;28;1128;-58
2023/07/12 07:35:11;;;;;;;;;;;;;;;15.81;55.01;101023.13;4996531;28;1139;-57
2023/07/12 07:37:37;;;;;;;;;;;;;;;15.81;54.94;101033.25;4997516;28;1195;-63
2023/07/12 07:40:03;;;;;;;;;;;;;;;15.78;54.99;101028.25;4998111;28;1918;-55
2023/07/12 07:42:29;;;;;;;;;;;;;;;15.81;55.00;101038.72;4998011;28;1179;-58
2023/07/12 07:44:54;;;;;;;;;;;;;;;15.81;55.22;101039.56;4998432;28;1043;-58
2023/07/12 07:47:20;;;;;;;;;;;;;;;15.77;55.17;101034.81;4985217;28;1028;-58
2023/07/12 07:49:46;;;;;;;;;;;;;;;15.80;55.21;101034.34;4998184;28;1109;-56
2023/07/12 07:52:11;;;;;;;;;;;;;;;15.81;55.10;101034.09;4997079;28;1101;-58
2023/07/12 07:54:38;;;;;;;;;;;;;;;15.79;55.33;101051.84;4996965;28;1388;-59
2023/07/12 07:57:04;;;;;;;;;;;;;;;15.79;55.07;101043.63;4997619;28;1095;-57
2023/07/12 07:59:29;;;;;;;;;;;;;;;15.78;55.19;101040.06;4997544;28;1914;-58
2023/07/12 08:01:55;;;;;;;;;;;;;;;15.81;55.11;101044.22;4996892;28;1195;-57
2023/07/12 08:04:20;;;;;;;;;;;;;;;15.74;55.23;101045.25;4997117;28;1032;-59
2023/07/12 08:06:46;;;;;;;;;;;;;;;15.81;55.12;101049.69;4996918;28;1195;-59
2023/07/12 08:09:11;;;;;;;;;;;;;;;15.80;55.19;101048.06;4997497;28;1266;-57
2023/07/12 08:11:37;;;;;;;;;;;;;;;15.76;55.28;101036.75;4996881;28;1343;-58
2023/07/12 08:14:02;;;;;;;;;;;;;;;15.81;55.40;101044.22;4996142;28;1333;-58
2023/07/12 08:16:28;;;;;;;;;;;;;;;15.75;55.40;101054.28;4996664;28;1345;-59
2023/07/12 08:18:54;;;;;;;;;;;;;;;15.77;55.58;101054.88;4996463;28;1914;-57
2023/07/12 08:21:19;;;;;;;;;;;;;;;15.75;55.59;101051.53;4996687;28;1100;-58
2023/07/12 08:23:45;;;;;;;;;;;;;;;15.73;55.70;101038.09;4997013;28;1483;-59
2023/07/12 08:26:11;;;;;;;;;;;;;;;15.74;55.63;101036.19;4994547;28;1357;-58
2023/07/12 08:28:36;;;;;;;;;;;;;;;15.72;55.51;101041.94;4996738;28;1089;-56
2023/07/12 08:31:02;;;;;;;;;;;;;;;15.74;55.59;101039.75;4996654;28;1032;-57
2023/07/12 08:33:27;;;;;;;;;;;;;;;15.72;55.46;101030.97;4997008;28;1136;-58
2023/07/12 08:35:53;;;;;;;;;;;;;;;15.77;55.32;101032.94;4996845;28;1147;-58
2023/07/12 08:38:18;;;;;;;;;;;;;;;15.71;55.59;101036.69;4997110;28;1914;-58
2023/07/12 08:40:45;;;;;;;;;;;;;;;15.77;55.33;101032.09;4996606;28;1147;-55
2023/07/12 08:43:11;;;;;;;;;;;;;;;15.73;55.69;101031.78;4986656;28;1036;-58
2023/07/12 08:45:37;;;;;;;;;;;;;;;15.76;55.39;101041.41;4996852;28;1262;-58
2023/07/12 08:48:03;;;;;;;;;;;;;;;15.71;55.78;101032.06;4995982;28;1238;-58
2023/07/12 08:50:35;;;;;;;;;;;;;;;15.77;55.36;101037.56;4996533;28;1080;-59
2023/07/12 08:53:00;;;;;;;;;;;;;;;15.73;55.50;101032.63;5009879;28;1069;-56
2023/07/12 08:55:28;;;;;;;;;;;;;;;15.72;55.80;101041.09;5005305;28;1100;-57
2023/07/12 08:57:55;;;;;;;;;;;;;;;15.71;55.79;101040.28;4996377;28;1128;-57
2023/07/12 09:00:26;;;;;;;;;;;;;;;15.70;55.79;101030.41;4994826;28;1906;-56
2023/07/12 09:02:52;;;;;;;;;;;;;;;15.71;55.55;101034.81;4996622;28;1144;-58
2023/07/12 09:05:18;;;;;;;;;;;;;;;15.66;55.90;101032.00;4996802;28;1412;-56
2023/07/12 09:07:59;;;;;;;;;;;;;;;15.73;55.50;101031.78;4996414;28;1165;-57
2023/07/12 09:10:33;;;;;;;;;;;;;;;15.73;55.56;101037.28;4984397;28;1357;-58
2023/07/12 09:12:59;;;;;;;;;;;;;;;15.74;55.51;101039.75;4996833;28;1509;-57
2023/07/12 09:15:29;;;;;;;;;;;;;;;15.71;55.67;101045.78;4987884;28;1103;-56
2023/07/12 09:17:55;;;;;;;;;;;;;;;15.72;55.92;101035.63;4990319;28;1147;-56
2023/07/12 09:20:24;;;;;;;;;;;;;;;15.71;55.73;101042.19;4993097;28;1910;-56
2023/07/12 09:22:50;;;;;;;;;;;;;;;15.70;55.92;101044.09;4996378;28;1187;-56
2023/07/12 09:25:35;;;;;;;;;;;;;;;15.72;55.82;101043.84;4995813;28;1172;-57
2023/07/12 09:28:01;;;;;;;;;;;;;;;15.72;55.79;101036.47;4996488;28;1051;-57
2023/07/12 09:30:27;;;;;;;;;;;;;;;15.73;55.81;101040.84;4988084;28;1336;-57
2023/07/12 09:32:52;;;;;;;;;;;;;;;15.68;56.12;101045.44;4989699;28;1020;-57
2023/07/12 09:35:25;;;;;;;;;;;;;;;15.73;55.95;101035.34;4999175;28;1266;-57
2023/07/12 09:37:57;;;;;;;;;;;;;;;15.74;55.87;101045.25;5012064;28;1233;-57
2023/07/12 09:40:23;;;;;;;;;;;;;;;15.71;55.96;101040.28;4988524;28;1975;-57
2023/07/12 09:42:48;;;;;;;;;;;;;;;15.69;56.07;101036.97;4985684;28;1103;-57
2023/07/12 09:45:14;;;;;;;;;;;;;;;15.70;56.00;101035.06;5000281;28;1024;-57
2023/07/12 09:47:42;;;;;;;;;;;;;;;15.75;55.97;101040.56;4986914;28;1076;-57
2023/07/12 09:50:10;;;;;;;;;;;;;;;15.73;56.27;101032.63;5000142;28;1048;-57
2023/07/12 09:52:58;;;;;;;;;;;;;;;15.73;56.36;101042.75;5000368;28;1067;-58
2023/07/12 09:55:38;;;;;;;;;;;;;;;15.74;56.19;101033.47;4997029;28;1403;-59
2023/07/12 09:58:03;;;;;;;;;;;;;;;15.73;56.34;101038.09;4990598;28;1009;-58
2023/07/12 10:00:48;;;;;;;;;;;;;;;15.72;56.08;101030.97;4996505;28;1975;-58
2023/07/12 10:03:19;;;;;;;;;;;;;;;15.73;56.31;101029.88;4993546;28;1270;-57
2023/07/12 10:06:08;;;;;;;;;;;;;;;15.76;56.24;101019.50;4980809;28;1021;-58
2023/07/12 10:09:06;;;;;;;;;;;;;;;15.75;56.08;101035.09;4994786;28;1360;-58
2023/07/12 10:11:36;;;;;;;;;;;;;;;15.91;58.20;101028.69;4985897;28;1297;-58
2023/07/12 10:14:02;;;;;;;;;;;;;;;15.81;57.93;101030.50;5006899;28;1140;-57
2023/07/12 10:16:31;;;;;;;;;;;;;;;15.84;57.74;101028.06;5011351;28;1054;-55
2023/07/12 10:18:56;;;;;;;;;;;;;;;15.84;57.39;101027.25;5006439;28;1985;-55
2023/07/12 10:21:23;;;;;;;;;;;;;;;15.77;57.30;101015.63;5011580;28;1082;-59
2023/07/12 10:23:49;;;;;;;;;;;;;;;15.79;57.32;101018.97;4998216;28;1444;-60
2023/07/12 10:26:15;;;;;;;;;;;;;;;15.78;57.18;101022.78;4990440;28;1040;-57
2023/07/12 10:28:41;;;;;;;;;;;;;;;15.77;56.92;101021.13;4994658;28;1154;-57
2023/07/12 10:31:26;;;;;;;;;;;;;;;15.93;57.83;101019.38;5002734;28;1203;-57
2023/07/12 10:33:53;;;;;;;;;;;;;;;15.85;57.74;101018.78;4994134;28;1172;-57
2023/07/12 10:36:20;;;;;;;;;;;;;;;15.83;57.44;101020.13;4985462;28;1056;-54
2023/07/12 10:38:46;;;;;;;;;;;;;;;15.78;57.43;101018.13;4987699;28;1906;-57
2023/07/12 10:41:13;;;;;;;;;;;;;;;15.80;57.28;101017.91;4992147;28;1139;-60
2023/07/12 10:43:43;;;;;;;;;;;;;;;15.82;57.01;101027.53;4998289;28;1369;-58
2023/07/12 10:46:10;;;;;;;;;;;;;;;15.82;57.05;101021.19;4997506;28;1175;-59
2023/07/12 10:48:36;;;;;;;;;;;;;;;15.82;57.01;101012.97;5002647;28;1075;-57
2023/07/12 10:51:15;;;;;;;;;;;;;;;15.83;56.85;101003.66;5013546;28;1099;-57
2023/07/12 10:53:47;;;;;;;;;;;;;;;15.82;56.78;101007.50;5007759;28;1048;-57
2023/07/12 10:56:26;;;;;;;;;;;;;;;15.77;57.05;100999.19;4988579;28;974;-57
2023/07/12 10:58:53;;;;;;;;;;;;;;;15.83;56.80;100993.50;4995618;28;1972;-58
2023/07/12 11:01:35;;;;;;;;;;;;;;;15.80;56.93;100982.25;4983598;28;1021;-59
2023/07/12 11:04:11;;;;;;;;;;;;;;;15.79;56.66;100986.91;4985641;28;1045;-58
2023/07/12 11:06:40;;;;;;;;;;;;;;;15.82;56.63;100996.53;4991258;28;1020;-55
2023/07/12 11:09:09;;;;;;;;;;;;;;;15.82;56.80;100991.03;5001019;28;1325;-56
2023/07/12 11:11:42;;;;;;;;;;;;;;;15.79;56.83;100997.03;4998488;28;1144;-57
2023/07/12 11:14:10;;;;;;;;;;;;;;;15.83;56.84;100989.97;4998604;28;1043;-61
2023/07/12 11:16:35;;;;;;;;;;;;;;;15.81;56.92;100992.13;4988662;28;1079;-60
2023/07/12 11:19:01;;;;;;;;;;;;;;;15.81;56.79;100994.84;5002817;28;1910;-61
2023/07/12 11:21:28;;;;;;;;;;;;;;;15.78;56.69;100998.09;4997589;28;918;-58
2023/07/12 11:23:53;;;;;;;;;;;;;;;15.80;56.51;100985.81;4998233;28;1083;-60
2023/07/12 11:26:29;;;;;;;;;;;;;;;15.80;56.79;100982.25;4997311;28;1111;-60
2023/07/12 11:29:13;;;;;;;;;;;;;;;15.82;56.63;100980.06;4997909;28;1059;-60
2023/07/12 11:31:40;;;;;;;;;;;;;;;15.78;56.67;100974.28;4997431;28;992;-59
2023/07/12 11:34:15;;;;;;;;;;;;;;;15.78;56.65;100979.75;4997919;28;1178;-60
2023/07/12 11:36:41;;;;;;;;;;;;;;;15.78;56.69;100978.91;4987055;28;1109;-60
2023/07/12 11:39:16;;;;;;;;;;;;;;;15.80;56.94;100980.34;4996955;28;2017;-60
2023/07/12 11:41:42;;;;;;;;;;;;;;;15.82;56.75;100977.31;4986691;28;1081;-61
2023/07/12 11:44:13;;;;;;;;;;;;;;;15.80;56.65;100971.28;4996462;28;1380;-59
2023/07/12 11:46:39;;;;;;;;;;;;;;;15.83;56.78;100971.56;4997828;28;1036;-59
2023/07/12 11:49:11;;;;;;;;;;;;;;;15.81;56.75;100979.25;5006244;28;1047;-59
2023/07/12 11:51:37;;;;;;;;;;;;;;;15.80;56.92;100971.28;4988489;28;1060;-57
2023/07/12 11:54:12;;;;;;;;;;;;;;;15.80;56.86;100976.78;5009647;28;1112;-60
2023/07/12 11:56:41;;;;;;;;;;;;;;;15.80;56.87;100982.25;5003731;28;1024;-58
2023/07/12 11:59:12;;;;;;;;;;;;;;;15.81;56.81;100981.16;4984725;28;1913;-56
2023/07/12 12:01:37;;;;;;;;;;;;;;;15.81;56.76;100979.25;4996947;28;1206;-56
2023/07/12 12:04:04;;;;;;;;;;;;;;;15.80;56.92;100974.84;4997327;28;1044;-58
2023/07/12 12:06:29;;;;;;;;;;;;;;;15.82;56.71;100974.59;4997065;28;1187;-61
2023/07/12 12:08:55;;;;;;;;;;;;;;;15.74;56.78;100963.00;4986509;28;1318;-55
2023/07/12 12:11:27;;;;;;;;;;;;;;;15.80;56.67;100960.31;5006597;28;1345;-59
2023/07/12 12:13:53;;;;;;;;;;;;;;;15.80;56.65;100958.41;4987324;28;1294;-60
2023/07/12 12:16:28;;;;;;;;;;;;;;;15.83;56.85;100959.78;4992538;28;1330;-58
2023/07/12 12:18:57;;;;;;;;;;;;;;;15.81;56.81;100956.47;4993049;28;1977;-61
2023/07/12 12:21:23;;;;;;;;;;;;;;;15.76;57.06;100950.94;4996627;28;1389;-56
2023/07/12 12:23:55;;;;;;;;;;;;;;;15.81;56.91;100951.00;4996985;28;1305;-59
2023/07/12 12:26:25;;;;;;;;;;;;;;;15.82;56.74;100942.53;4997395;28;1108;-57
2023/07/12 12:28:52;;;;;;;;;;;;;;;15.81;56.74;100945.50;4997296;28;1035;-57
2023/07/12 12:31:21;;;;;;;;;;;;;;;15.85;56.65;100952.97;4997568;28;1056;-59
2023/07/12 12:33:51;;;;;;;;;;;;;;;15.82;56.57;100956.22;4997166;28;998;-60
2023/07/12 12:36:23;;;;;;;;;;;;;;;15.82;56.92;100952.66;4983799;28;1096;-62
2023/07/12 12:39:07;;;;;;;;;;;;;;;15.85;56.83;100952.13;4997249;28;1983;-61
2023/07/12 12:41:34;;;;;;;;;;;;;;;15.82;56.65;100958.13;4992968;28;1092;-58
2023/07/12 12:44:07;;;;;;;;;;;;;;;15.84;56.57;100961.44;4997229;28;1305;-61
2023/07/12 12:46:32;;;;;;;;;;;;;;;15.82;56.62;100952.66;4992989;28;1115;-61
2023/07/12 12:48:57;;;;;;;;;;;;;;;15.81;56.71;100956.47;4988441;28;1115;-60